Bei Facebook empfehlenBei Twitter postenGoogle plusPinterest

Das Wetter im Erzgebirge am 23.10.2015

Wetter und Klima am 23.10.2015 Holzhau im Erzgebirge (630m ü.NN)
Letzte gemessene Temperatur und Uhrzeit der Messung23:45:00 Uhr0.90 °C
Temperatur (Maximum / Höchstwert) und Uhrzeit der Messung14:00:00 Uhr9.90 °C
Temperatur (Minimum / Tiefstwert) und Uhrzeit der Messung23:30:000.60 °C
Errechneter Absolutwert der Temperaturschwankungen zwischen Tmin und Tmax des Tages9.30 K
Errechnete Tagesmitteltemperatur6.58542 °C
Gesamt - Niederschlag des Tages (in flüssiger Form)1.56 Liter / m²
Luftdruck (Maximum / Höchstwert) und Zeitpunkt der Messung21:30:00 Uhr1021.10 hPa
Luftdruck (Minimum / Tiefstwert) und Zeitpunkt der Messung00:30:00 Uhr1013.80 hPa
Errechneter Absolutwert der Luftdruckschwankungen des Tages7.30 hPa
Höchste gemessene Windgeschwindigkeit und Uhrzeit der Messung13:00:00 Uhr12.96 km/h
Errechnete Windhäufigkeit in Relation zu den Messwerten des Tages29.16667 %
Niedrigste Windkühle (Windchill) und Zeitpunkt der Messung23:15:00 Uhr-3.10 °C
Taupunkt (Maximum / Höchstwert) und Uhrzeit der Messung12:00:00 Uhr8.80 °C
Taupunkt (Minimum / Tiefstwert) und Uhrzeit der Messung23:15:00-0.50 °C
Anzahl der automatisch eingelesenen Messwerte 96

Detaillierte Wetter- und Klima- Messwerte für den 23.10.2015 in Holzhau im Erzgebirge (630m ü.NN)
ZeitTemperaturLuftdruckRel. LuftfeuchteWindWindrichtungWindchillTaupunktNiederschlag l/m²
23:45:000.90 °C1020.30 hPa93.00 %2.16 km/hOSO0.90 °C-0.10 °C1.56
23:30:000.60 °C1020.40 hPa93.00 %-0.40 °C1.56
23:15:000.60 °C1020.40 hPa92.00 %12.24 km/hOSO-3.10 °C-0.50 °C1.56
23:00:000.60 °C1020.70 hPa92.00 %-0.50 °C1.56
22:45:000.90 °C1020.80 hPa92.00 %-0.20 °C1.56
22:30:001.10 °C1020.80 hPa92.00 %-0.10 °C1.56
22:15:001.10 °C1020.90 hPa92.00 %3.96 km/hOSO1.10 °C-0.10 °C1.56
22:00:001.30 °C1020.60 hPa91.00 %0.00 °C1.56
21:45:001.30 °C1020.60 hPa91.00 %2.52 km/hSO1.30 °C0.00 °C1.56
21:30:001.30 °C1021.10 hPa91.00 %0.00 °C1.56
21:15:001.60 °C1021.10 hPa91.00 %0.30 °C1.56
21:00:001.80 °C1020.90 hPa90.00 %0.30 °C1.56
20:45:001.80 °C1021.10 hPa90.00 %2.16 km/hO1.80 °C0.30 °C1.56
20:30:001.90 °C1020.90 hPa90.00 %0.40 °C1.56
20:15:002.20 °C1020.90 hPa89.00 %0.60 °C1.56
20:00:002.60 °C1020.70 hPa89.00 %1.00 °C1.56
19:45:003.00 °C1020.50 hPa89.00 %1.40 °C1.56
19:30:003.40 °C1020.70 hPa88.00 %1.60 °C1.56
19:15:004.00 °C1020.50 hPa87.00 %2.00 °C1.56
19:00:004.90 °C1020.30 hPa87.00 %2.90 °C1.56
18:45:005.80 °C1020.40 hPa87.00 %3.80 °C1.56
18:30:006.80 °C1020.20 hPa87.00 %4.80 °C1.56
18:15:007.30 °C1020.30 hPa87.00 %5.30 °C1.56
18:00:007.60 °C1020.40 hPa87.00 %5.60 °C1.56
17:45:007.90 °C1020.30 hPa86.00 %5.70 °C1.56
17:30:008.10 °C1020.50 hPa86.00 %5.90 °C1.56
17:15:008.30 °C1020.50 hPa85.00 %5.90 °C1.56
17:00:008.40 °C1020.20 hPa85.00 %3.96 km/hWNW8.40 °C6.00 °C1.56
16:45:008.50 °C1020.00 hPa84.00 %6.00 °C1.56
16:30:008.90 °C1020.10 hPa84.00 %6.30 °C1.56
16:15:009.10 °C1020.10 hPa84.00 %6.50 °C1.56
16:00:009.20 °C1020.10 hPa84.00 %3.24 km/hWNW9.20 °C6.60 °C1.56
15:45:009.20 °C1020.00 hPa85.00 %6.80 °C1.56
15:30:009.20 °C1020.20 hPa84.00 %6.60 °C1.56
15:15:009.40 °C1019.80 hPa84.00 %6.80 °C1.56
15:00:009.50 °C1019.80 hPa85.00 %7.10 °C1.56
14:45:009.40 °C1019.70 hPa85.00 %2.16 km/hNNW9.40 °C7.00 °C1.56
14:30:009.50 °C1019.80 hPa85.00 %3.96 km/hWNW9.50 °C7.10 °C1.56
14:15:009.60 °C1019.80 hPa86.00 %12.24 km/hWNW7.80 °C7.40 °C1.56
14:00:009.90 °C1019.70 hPa87.00 %4.68 km/hWNW9.90 °C7.80 °C1.56
13:45:009.80 °C1019.70 hPa88.00 %3.96 km/hWNW9.80 °C7.90 °C1.56
13:30:009.60 °C1019.70 hPa89.00 %7.56 km/hW8.60 °C7.90 °C1.56
13:15:009.50 °C1019.70 hPa90.00 %6.84 km/hWNW8.70 °C7.90 °C1.56
13:00:009.90 °C1019.70 hPa92.00 %12.96 km/hW8.10 °C8.70 °C1.56
12:45:009.50 °C1019.70 hPa93.00 %4.68 km/hW9.50 °C8.40 °C1.56
12:30:009.40 °C1019.70 hPa94.00 %7.56 km/hW8.40 °C8.50 °C1.56
12:15:009.60 °C1019.70 hPa94.00 %8.70 °C1.56
12:00:009.60 °C1019.30 hPa95.00 %8.80 °C1.56
11:45:009.00 °C1019.30 hPa96.00 %4.32 km/hNW9.00 °C8.40 °C1.56
11:30:008.50 °C1019.00 hPa96.00 %7.90 °C1.56
11:15:008.50 °C1019.00 hPa96.00 %7.90 °C1.56
11:00:008.30 °C1018.80 hPa97.00 %7.90 °C1.56
10:45:008.00 °C1018.80 hPa97.00 %7.60 °C1.56
10:30:007.90 °C1018.70 hPa97.00 %8.64 km/hW6.40 °C7.50 °C1.56
10:15:007.80 °C1018.50 hPa97.00 %7.40 °C1.56
10:00:007.70 °C1018.30 hPa97.00 %1.80 km/hNW7.70 °C7.30 °C1.56
09:45:007.30 °C1018.00 hPa97.00 %3.60 km/hNNW7.30 °C6.90 °C1.56
09:30:007.00 °C1018.00 hPa97.00 %8.28 km/hSW5.40 °C6.60 °C1.56
09:15:006.80 °C1017.90 hPa97.00 %6.40 °C1.56
09:00:006.50 °C1017.70 hPa97.00 %2.16 km/hWSW6.50 °C6.10 °C1.56
08:45:006.40 °C1017.60 hPa97.00 %6.00 °C1.56
08:30:006.40 °C1017.60 hPa97.00 %6.00 °C1.56
08:15:006.40 °C1017.60 hPa97.00 %6.00 °C1.56
08:00:006.50 °C1017.40 hPa97.00 %6.10 °C1.56
07:45:006.50 °C1017.30 hPa97.00 %6.10 °C1.56
07:30:006.50 °C1017.00 hPa97.00 %6.10 °C1.56
07:15:006.50 °C1016.90 hPa97.00 %6.10 °C1.56
07:00:006.50 °C1016.70 hPa97.00 %6.10 °C1.56
06:45:006.50 °C1016.70 hPa97.00 %6.10 °C1.56
06:30:006.60 °C1016.70 hPa97.00 %6.20 °C1.56
06:15:006.60 °C1016.60 hPa97.00 %6.20 °C1.56
06:00:006.70 °C1016.30 hPa97.00 %6.30 °C1.56
05:45:006.80 °C1016.20 hPa97.00 %6.40 °C1.56
05:30:006.90 °C1016.00 hPa97.00 %6.50 °C1.56
05:15:007.00 °C1015.90 hPa96.00 %6.40 °C1.56
05:00:007.10 °C1015.80 hPa96.00 %6.50 °C1.56
04:45:007.10 °C1015.60 hPa96.00 %6.50 °C1.56
04:30:007.10 °C1015.20 hPa96.00 %8.64 km/hW5.50 °C6.50 °C1.56
04:15:007.10 °C1015.50 hPa96.00 %6.50 °C1.56
04:00:007.00 °C1015.30 hPa96.00 %6.40 °C1.56
03:45:007.00 °C1015.10 hPa96.00 %6.40 °C1.56
03:30:007.10 °C1015.10 hPa96.00 %6.50 °C1.56
03:15:007.40 °C1015.00 hPa96.00 %9.72 km/hWSW5.60 °C6.80 °C1.56
03:00:007.80 °C1014.90 hPa96.00 %8.64 km/hWSW6.30 °C7.20 °C1.56
02:45:007.80 °C1014.50 hPa96.00 %7.20 °C1.04
02:30:007.60 °C1014.40 hPa96.00 %9.00 km/hWNW6.00 °C7.00 °C1.04
02:15:007.60 °C1014.30 hPa96.00 %1.80 km/hNW7.60 °C7.00 °C1.04
02:00:007.60 °C1014.20 hPa96.00 %7.00 °C1.04
01:45:007.50 °C1014.00 hPa96.00 %6.90 °C1.04
01:30:007.50 °C1014.10 hPa96.00 %6.90 °C1.04
01:15:007.40 °C1013.90 hPa96.00 %6.80 °C1.04
01:00:007.40 °C1014.00 hPa96.00 %6.80 °C1.04
00:45:007.40 °C1014.00 hPa96.00 %6.80 °C0.52
00:30:007.40 °C1013.80 hPa96.00 %6.80 °C0.52
00:15:007.40 °C1014.00 hPa96.00 %6.80 °C0.52
00:00:007.40 °C1013.80 hPa96.00 %6.80 °C 

Permanenter Link zu dieser Seite: Wetter im Erzgebirge am 23.10.2015
Performance-Info: Die Erstellung der Seite / Statistik(en) / Tabelle(n) erforderte 5 Datenbankserver-Abfrage(n) und dauerte 102 Millisekunden. (Dieser Messwert ist von der Gesamt-Auslastung des Servers abhängig.)
Erzgebirge - Wetter | Erzgebirge - Wetter (Mobilgeräte) | Komplette Klimadatenbank